createdAt,value
2016-06-17T00:00:50.791Z,0
2016-06-17T00:01:50.670Z,0
2016-06-17T00:02:50.829Z,0
2016-06-17T00:03:50.645Z,0
2016-06-17T00:04:50.665Z,0
2016-06-17T00:05:50.825Z,0
2016-06-17T00:06:50.828Z,0
2016-06-17T00:07:50.846Z,0
2016-06-17T00:08:50.850Z,0
2016-06-17T00:09:50.853Z,0
2016-06-17T00:10:50.701Z,0
2016-06-17T00:11:50.860Z,0
2016-06-17T00:12:50.880Z,0
2016-06-17T00:13:50.727Z,0
2016-06-17T00:14:50.870Z,0
2016-06-17T00:15:50.890Z,0
2016-06-17T00:16:50.738Z,0
2016-06-17T00:17:50.913Z,0
2016-06-17T00:18:50.916Z,0
2016-06-17T00:19:50.935Z,0
2016-06-17T00:20:50.938Z,0
2016-06-17T00:21:50.786Z,0
2016-06-17T00:22:50.945Z,0
2016-06-17T00:23:50.793Z,0
2016-06-17T00:24:50.796Z,0
2016-06-17T00:25:50.956Z,0
2016-06-17T00:26:50.819Z,0
2016-06-17T00:27:50.963Z,0
2016-06-17T00:28:50.982Z,0
2016-06-17T00:29:50.985Z,0
2016-06-17T00:30:51.020Z,0
2016-06-17T00:31:50.851Z,0
2016-06-17T00:32:51.012Z,0
2016-06-17T00:33:51.015Z,0
2016-06-17T00:34:51.019Z,0
2016-06-17T00:35:51.037Z,0
2016-06-17T00:36:50.885Z,0
2016-06-17T00:37:51.044Z,0
2016-06-17T00:38:51.048Z,0
2016-06-17T00:39:51.051Z,0
2016-06-17T00:40:51.070Z,0
2016-06-17T00:41:51.058Z,0
2016-06-17T00:42:51.078Z,0
2016-06-17T00:43:51.081Z,0
2016-06-17T00:44:51.099Z,0
2016-06-17T00:45:50.946Z,0
2016-06-17T00:46:50.966Z,0
2016-06-17T00:47:51.110Z,0
2016-06-17T00:48:50.801Z,0
2016-06-17T00:49:50.976Z,0
2016-06-17T00:50:51.135Z,0
2016-06-17T00:51:50.997Z,0
2016-06-17T00:52:51.141Z,0
2016-06-17T00:53:51.160Z,0
2016-06-17T00:54:51.147Z,0
2016-06-17T00:55:51.166Z,0
2016-06-17T00:56:51.012Z,0
2016-06-17T00:57:51.032Z,0
2016-06-17T00:58:51.176Z,0
2016-06-17T00:59:51.180Z,0
2016-06-17T01:00:51.073Z,0
2016-06-17T01:01:51.201Z,0
2016-06-17T01:02:51.065Z,0
2016-06-17T01:03:51.068Z,0
2016-06-17T01:04:51.086Z,0
2016-06-17T01:05:51.231Z,0
2016-06-17T01:06:51.235Z,0
2016-06-17T01:07:50.925Z,0
2016-06-17T01:08:51.258Z,0
2016-06-17T01:09:51.261Z,0
2016-06-17T01:10:51.264Z,0
2016-06-17T01:11:51.268Z,0
2016-06-17T01:12:51.286Z,0
2016-06-17T01:13:51.289Z,0
2016-06-17T01:14:51.293Z,0
2016-06-17T01:15:51.328Z,0
2016-06-17T01:16:51.206Z,0
2016-06-17T01:17:51.319Z,0
2016-06-17T01:18:51.323Z,0
2016-06-17T01:19:51.185Z,0
2016-06-17T01:20:51.345Z,0
2016-06-17T01:21:51.349Z,0
2016-06-17T01:22:51.195Z,0
2016-06-17T01:23:51.356Z,0
2016-06-17T01:24:51.358Z,0
2016-06-17T01:25:51.222Z,0
2016-06-17T01:26:51.226Z,0
2016-06-17T01:27:51.213Z,0
2016-06-17T01:28:51.404Z,0
2016-06-17T01:29:51.408Z,0
2016-06-17T01:30:51.395Z,0
2016-06-17T01:31:51.258Z,0
2016-06-17T01:32:51.403Z,0
2016-06-17T01:33:51.405Z,0
2016-06-17T01:34:51.268Z,0
2016-06-17T01:35:51.444Z,0
2016-06-17T01:36:51.448Z,0
2016-06-17T01:37:51.451Z,0
2016-06-17T01:38:51.471Z,0
2016-06-17T01:39:51.317Z,0
2016-06-17T01:40:51.477Z,0
2016-06-17T01:41:51.481Z,0
2016-06-17T01:42:51.500Z,0
2016-06-17T01:43:51.488Z,0
2016-06-17T01:44:51.491Z,0
2016-06-17T01:45:51.510Z,0
2016-06-17T01:46:51.201Z,0
2016-06-17T01:47:51.518Z,0
2016-06-17T01:48:51.363Z,0
2016-06-17T01:49:51.539Z,0
2016-06-17T01:50:51.543Z,0
2016-06-17T01:51:51.671Z,0
2016-06-17T01:52:51.566Z,0
2016-06-17T01:53:51.413Z,0
2016-06-17T01:54:51.666Z,0
2016-06-17T01:55:51.435Z,0
2016-06-17T01:56:51.441Z,0
2016-06-17T01:57:51.290Z,0
2016-06-17T01:58:51.606Z,0
2016-06-17T01:59:51.455Z,0
2016-06-17T02:00:51.616Z,0
2016-06-17T02:01:51.620Z,0
2016-06-17T02:02:51.640Z,0
2016-06-17T02:03:51.628Z,0
2016-06-17T02:04:51.647Z,0
2016-06-17T02:05:51.667Z,0
2016-06-17T02:06:51.671Z,0
2016-06-17T02:07:51.659Z,0
2016-06-17T02:08:51.679Z,0
2016-06-17T02:09:51.682Z,0
2016-06-17T02:10:51.701Z,0
2016-06-17T02:11:51.690Z,0
2016-06-17T02:12:51.709Z,0
2016-06-17T02:13:51.696Z,0
2016-06-17T02:14:51.715Z,0
2016-06-17T02:15:51.718Z,0
2016-06-17T02:16:51.738Z,0
2016-06-17T02:17:51.586Z,0
2016-06-17T02:18:51.589Z,0
2016-06-17T02:19:51.592Z,0
2016-06-17T02:20:51.752Z,0
2016-06-17T02:21:51.756Z,0
2016-06-17T02:22:51.617Z,0
2016-06-17T02:23:51.778Z,0
2016-06-17T02:24:51.797Z,0
2016-06-17T02:25:51.644Z,0
2016-06-17T02:26:51.648Z,0
2016-06-17T02:27:51.808Z,0
2016-06-17T02:28:51.826Z,0
2016-06-17T02:29:51.814Z,0
2016-06-17T02:30:51.834Z,0
2016-06-17T02:31:51.837Z,0
2016-06-17T02:32:51.685Z,0
2016-06-17T02:33:51.843Z,0
2016-06-17T02:34:51.862Z,0
2016-06-17T02:35:51.866Z,0
2016-06-17T02:36:51.855Z,0
2016-06-17T02:37:51.716Z,0
2016-06-17T02:38:51.876Z,0
2016-06-17T02:39:51.724Z,0
2016-06-17T02:40:51.743Z,0
2016-06-17T02:41:51.903Z,0
2016-06-17T02:42:51.906Z,0
2016-06-17T02:43:51.925Z,0
2016-06-17T02:44:51.929Z,0
2016-06-17T02:45:51.933Z,0
2016-06-17T02:46:51.920Z,0
2016-06-17T02:47:51.939Z,0
2016-06-17T02:48:51.958Z,0
2016-06-17T02:49:51.961Z,0
2016-06-17T02:50:51.965Z,0
2016-06-17T02:51:51.828Z,0
2016-06-17T02:52:51.987Z,0
2016-06-17T02:53:51.835Z,0
2016-06-17T02:54:51.995Z,0
2016-06-17T02:55:51.842Z,4
2016-06-17T02:56:52.001Z,4
2016-06-17T02:57:52.021Z,4
2016-06-17T02:58:52.024Z,4
2016-06-17T02:59:52.028Z,4
2016-06-17T03:00:52.031Z,4
2016-06-17T03:01:52.050Z,4
2016-06-17T03:02:52.053Z,0
2016-06-17T03:03:52.057Z,0
2016-06-17T03:04:52.060Z,0
2016-06-17T03:05:52.080Z,0
2016-06-17T03:06:52.223Z,0
2016-06-17T03:07:51.930Z,0
2016-06-17T03:08:52.090Z,0
2016-06-17T03:09:51.937Z,4
2016-06-17T03:10:52.097Z,4
2016-06-17T03:11:52.115Z,4
2016-06-17T03:12:51.963Z,4
2016-06-17T03:13:52.122Z,4
2016-06-17T03:14:52.142Z,4
2016-06-17T03:15:52.129Z,4
2016-06-17T03:16:52.133Z,4
2016-06-17T03:17:52.152Z,4
2016-06-17T03:18:52.155Z,4
2016-06-17T03:19:52.175Z,4
2016-06-17T03:20:51.850Z,8
2016-06-17T03:21:52.197Z,4
2016-06-17T03:22:52.186Z,4
2016-06-17T03:23:52.204Z,8
2016-06-17T03:24:52.192Z,8
2016-06-17T03:25:52.039Z,4
2016-06-17T03:26:52.214Z,8
2016-06-17T03:27:52.218Z,8
2016-06-17T03:28:52.065Z,8
2016-06-17T03:29:52.225Z,8
2016-06-17T03:30:52.228Z,8
2016-06-17T03:31:52.075Z,12
2016-06-17T03:32:52.095Z,8
2016-06-17T03:33:52.270Z,12
2016-06-17T03:34:52.101Z,8
2016-06-17T03:35:52.278Z,12
2016-06-17T03:36:52.280Z,12
2016-06-17T03:37:52.143Z,16
2016-06-17T03:38:52.288Z,16
2016-06-17T03:39:52.307Z,16
2016-06-17T03:40:52.309Z,20
2016-06-17T03:41:52.173Z,16
2016-06-17T03:42:52.332Z,20
2016-06-17T03:43:52.336Z,20
2016-06-17T03:44:52.340Z,24
2016-06-17T03:45:52.343Z,20
2016-06-17T03:46:52.191Z,28
2016-06-17T03:47:52.209Z,28
2016-06-17T03:48:52.213Z,32
2016-06-17T03:49:52.215Z,36
2016-06-17T03:50:52.250Z,36
2016-06-17T03:51:52.379Z,36
2016-06-17T03:52:52.382Z,40
2016-06-17T03:53:52.386Z,44
2016-06-17T03:54:52.389Z,44
2016-06-17T03:55:52.408Z,48
2016-06-17T03:56:52.412Z,48
2016-06-17T03:57:52.432Z,48
2016-06-17T03:58:52.278Z,48
2016-06-17T03:59:52.438Z,48
2016-06-17T04:00:52.442Z,52
2016-06-17T04:01:52.445Z,56
2016-06-17T04:02:52.308Z,56
2016-06-17T04:03:52.467Z,60
2016-06-17T04:04:52.470Z,64
2016-06-17T04:05:52.162Z,68
2016-06-17T04:06:52.525Z,76
2016-06-17T04:07:52.341Z,80
2016-06-17T04:08:52.500Z,88
2016-06-17T04:09:52.504Z,92
2016-06-17T04:10:52.507Z,92
2016-06-17T04:11:52.527Z,96
2016-06-17T04:12:52.517Z,104
2016-06-17T04:13:52.399Z,116
2016-06-17T04:14:52.547Z,120
2016-06-17T04:15:52.554Z,124
2016-06-17T04:16:52.560Z,132
2016-06-17T04:17:52.581Z,136
2016-06-17T04:18:52.429Z,140
2016-06-17T04:19:52.590Z,144
2016-06-17T04:20:52.610Z,152
2016-06-17T04:21:52.615Z,164
2016-06-17T04:22:52.448Z,168
2016-06-17T04:23:52.607Z,172
2016-06-17T04:24:52.627Z,176
2016-06-17T04:25:52.490Z,184
2016-06-17T04:26:52.649Z,192
2016-06-17T04:27:52.653Z,204
2016-06-17T04:28:52.673Z,208
2016-06-17T04:29:52.661Z,212
2016-06-17T04:30:52.681Z,220
2016-06-17T04:31:52.512Z,224
2016-06-17T04:32:52.689Z,228
2016-06-17T04:33:52.691Z,232
2016-06-17T04:34:52.711Z,232
2016-06-17T04:35:52.699Z,240
2016-06-17T04:36:52.719Z,248
2016-06-17T04:37:52.564Z,256
2016-06-17T04:38:52.725Z,260
2016-06-17T04:39:52.728Z,276
2016-06-17T04:40:52.575Z,300
2016-06-17T04:41:52.751Z,320
2016-06-17T04:42:52.753Z,340
2016-06-17T04:43:52.757Z,360
2016-06-17T04:44:52.776Z,384
2016-06-17T04:45:52.781Z,396
2016-06-17T04:46:52.784Z,416
2016-06-17T04:47:52.804Z,412
2016-06-17T04:48:52.790Z,396
2016-06-17T04:49:52.810Z,412
2016-06-17T04:50:52.813Z,420
2016-06-17T04:51:52.817Z,432
2016-06-17T04:52:52.836Z,428
2016-06-17T04:53:52.824Z,472
2016-06-17T04:54:52.827Z,752
2016-06-17T04:55:52.846Z,880
2016-06-17T04:56:52.694Z,616
2016-06-17T04:57:52.869Z,472
2016-06-17T04:58:52.560Z,412
2016-06-17T04:59:52.875Z,384
2016-06-17T05:00:52.894Z,336
2016-06-17T05:01:52.883Z,316
2016-06-17T05:02:52.901Z,296
2016-06-17T05:03:52.905Z,284
2016-06-17T05:04:52.924Z,264
2016-06-17T05:05:52.911Z,276
2016-06-17T05:06:52.962Z,276
2016-06-17T05:07:52.623Z,256
2016-06-17T05:08:52.782Z,260
2016-06-17T05:09:52.786Z,276
2016-06-17T05:10:52.944Z,284
2016-06-17T05:11:52.651Z,280
2016-06-17T05:12:52.952Z,268
2016-06-17T05:13:52.814Z,244
2016-06-17T05:14:52.975Z,220
2016-06-17T05:15:52.821Z,208
2016-06-17T05:16:52.684Z,196
2016-06-17T05:17:53.000Z,192
2016-06-17T05:18:53.003Z,192
2016-06-17T05:19:53.007Z,200
2016-06-17T05:20:52.871Z,204
2016-06-17T05:21:52.873Z,196
2016-06-17T05:22:52.861Z,204
2016-06-17T05:23:52.880Z,216
2016-06-17T05:24:52.915Z,212
2016-06-17T05:25:53.075Z,192
2016-06-17T05:26:53.094Z,180
2016-06-17T05:27:53.082Z,184
2016-06-17T05:28:52.929Z,180
2016-06-17T05:29:53.089Z,168
2016-06-17T05:30:53.077Z,156
2016-06-17T05:31:53.127Z,164
2016-06-17T05:32:53.099Z,168
2016-06-17T05:33:53.118Z,176
2016-06-17T05:34:53.106Z,184
2016-06-17T05:35:52.969Z,204
2016-06-17T05:36:52.973Z,208
2016-06-17T05:37:53.147Z,208
2016-06-17T05:38:52.980Z,200
2016-06-17T05:39:53.154Z,204
2016-06-17T05:40:53.064Z,208
2016-06-17T05:41:53.161Z,232
2016-06-17T05:42:53.180Z,236
2016-06-17T05:43:53.043Z,236
2016-06-17T05:44:53.187Z,272
2016-06-17T05:45:53.191Z,284
2016-06-17T05:46:53.194Z,292
2016-06-17T05:47:53.198Z,328
2016-06-17T05:48:53.217Z,416
2016-06-17T05:49:53.049Z,456
2016-06-17T05:50:53.333Z,444
2016-06-17T05:51:53.086Z,436
2016-06-17T05:52:53.246Z,440
2016-06-17T05:53:53.249Z,420
2016-06-17T05:54:52.956Z,428
2016-06-17T05:55:53.256Z,436
2016-06-17T05:56:53.276Z,460
2016-06-17T05:57:53.123Z,496
2016-06-17T05:58:53.126Z,536
2016-06-17T05:59:53.287Z,528
2016-06-17T06:00:53.398Z,520
2016-06-17T06:01:53.293Z,504
2016-06-17T06:02:53.313Z,496
2016-06-17T06:03:53.300Z,428
2016-06-17T06:04:53.022Z,400
2016-06-17T06:05:53.322Z,512
2016-06-17T06:06:53.497Z,604
2016-06-17T06:07:53.345Z,652
2016-06-17T06:08:53.365Z,620
2016-06-17T06:09:53.351Z,592
2016-06-17T06:10:53.371Z,640
2016-06-17T06:11:53.374Z,720
2016-06-17T06:12:53.378Z,744
2016-06-17T06:13:53.382Z,740
2016-06-17T06:14:53.385Z,640
2016-06-17T06:15:53.685Z,564
2016-06-17T06:16:53.407Z,532
2016-06-17T06:17:53.285Z,548
2016-06-17T06:18:53.946Z,616
2016-06-17T06:19:53.465Z,652
2016-06-17T06:20:54.077Z,588
2016-06-17T06:21:54.269Z,512
2016-06-17T06:22:54.162Z,444
2016-06-17T06:23:54.353Z,480
2016-06-17T06:24:54.185Z,548
2016-06-17T06:25:54.376Z,556
2016-06-17T06:26:53.317Z,548
2016-06-17T06:27:53.461Z,556
2016-06-17T06:28:53.512Z,460
2016-06-17T06:29:53.707Z,344
2016-06-17T06:30:53.513Z,280
2016-06-17T06:31:53.521Z,292
2016-06-17T06:32:53.577Z,368
2016-06-17T06:33:53.538Z,368
2016-06-17T06:34:54.496Z,352
2016-06-17T06:35:53.408Z,332
2016-06-17T06:36:53.569Z,316
2016-06-17T06:37:53.573Z,376
2016-06-17T06:38:53.423Z,428
2016-06-17T06:39:53.599Z,388
2016-06-17T06:40:53.604Z,368
2016-06-17T06:41:53.622Z,288
2016-06-17T06:42:53.627Z,224
2016-06-17T06:43:53.866Z,180
2016-06-17T06:44:53.634Z,164
2016-06-17T06:45:53.638Z,156
2016-06-17T06:46:53.657Z,168
2016-06-17T06:47:53.520Z,172
2016-06-17T06:48:53.508Z,164
2016-06-17T06:49:54.151Z,160
2016-06-17T06:50:53.686Z,160
2016-06-17T06:51:53.393Z,164
2016-06-17T06:52:53.943Z,180
2016-06-17T06:53:53.401Z,180
2016-06-17T06:54:53.716Z,168
2016-06-17T06:55:53.876Z,176
2016-06-17T06:56:53.769Z,196
2016-06-17T06:57:53.726Z,216
2016-06-17T06:58:53.589Z,244
2016-06-17T06:59:53.733Z,284
2016-06-17T07:00:53.596Z,292
2016-06-17T07:01:53.615Z,292
2016-06-17T07:02:53.759Z,260
2016-06-17T07:03:53.762Z,228
2016-06-17T07:04:53.766Z,212
2016-06-17T07:05:53.785Z,200
2016-06-17T07:06:53.852Z,208
2016-06-17T07:07:55.916Z,204
2016-06-17T07:08:53.655Z,168
2016-06-17T07:09:53.658Z,152
2016-06-17T07:10:54.162Z,140
2016-06-17T07:11:53.822Z,140
2016-06-17T07:12:53.825Z,148
2016-06-17T07:13:53.829Z,152
2016-06-17T07:14:53.848Z,168
2016-06-17T07:15:53.866Z,176
2016-06-17T07:16:53.855Z,188
2016-06-17T07:17:53.937Z,184
2016-06-17T07:18:53.861Z,196
2016-06-17T07:19:53.881Z,236
2016-06-17T07:20:53.883Z,284
2016-06-17T07:21:53.731Z,320
2016-06-17T07:22:53.891Z,324
2016-06-17T07:23:53.911Z,312
2016-06-17T07:24:53.929Z,336
2016-06-17T07:25:53.917Z,348
2016-06-17T07:26:53.920Z,368
2016-06-17T07:27:53.783Z,392
2016-06-17T07:28:53.975Z,356
2016-06-17T07:29:53.805Z,392
2016-06-17T07:30:53.716Z,512
2016-06-17T07:31:54.015Z,900
2016-06-17T07:32:53.956Z,1212
2016-06-17T07:33:53.820Z,892
2016-06-17T07:34:53.824Z,636
2016-06-17T07:35:54.702Z,752
2016-06-17T07:36:53.517Z,916
2016-06-17T07:37:54.005Z,404
2016-06-17T07:38:54.024Z,352
2016-06-17T07:39:54.027Z,328
2016-06-17T07:40:54.047Z,308
2016-06-17T07:41:54.848Z,324
2016-06-17T07:42:53.881Z,316
2016-06-17T07:43:54.119Z,332
2016-06-17T07:44:54.061Z,388
2016-06-17T07:45:53.908Z,344
2016-06-17T07:46:53.912Z,364
2016-06-17T07:47:54.071Z,356
2016-06-17T07:48:54.106Z,384
2016-06-17T07:49:54.109Z,368
2016-06-17T07:50:53.956Z,384
2016-06-17T07:51:54.116Z,396
2016-06-17T07:52:53.964Z,396
2016-06-17T07:53:54.264Z,392
2016-06-17T07:54:54.314Z,384
2016-06-17T07:55:54.302Z,496
2016-06-17T07:56:54.164Z,468
2016-06-17T07:57:54.309Z,408
2016-06-17T07:58:54.171Z,364
2016-06-17T07:59:54.238Z,340
2016-06-17T08:04:56.209Z,260
2016-06-17T08:05:50.056Z,248
2016-06-17T08:06:50.075Z,240
2016-06-17T08:07:50.125Z,228
2016-06-17T08:08:50.082Z,224
2016-06-17T08:09:50.085Z,224
2016-06-17T08:10:50.073Z,228
2016-06-17T08:11:50.093Z,224
2016-06-17T08:12:50.126Z,224
2016-06-17T08:13:50.755Z,224
2016-06-17T08:14:50.961Z,220
2016-06-17T08:15:50.106Z,216
2016-06-17T08:16:50.125Z,208
2016-06-17T08:17:50.129Z,196
2016-06-17T08:18:50.133Z,204
2016-06-17T08:19:50.136Z,208
2016-06-17T08:20:50.170Z,212
2016-06-17T08:21:50.158Z,216
2016-06-17T08:22:50.177Z,216
2016-06-17T08:23:50.181Z,220
2016-06-17T08:24:50.199Z,232
2016-06-17T08:25:50.188Z,232
2016-06-17T08:26:50.816Z,232
2016-06-17T08:27:51.429Z,232
2016-06-17T08:28:50.573Z,232
2016-06-17T08:29:50.202Z,228
2016-06-17T08:30:50.236Z,232
2016-06-17T08:31:50.240Z,236
2016-06-17T08:32:50.478Z,236
2016-06-17T08:33:50.247Z,248
2016-06-17T08:34:50.251Z,256
2016-06-17T08:35:50.253Z,268
2016-06-17T08:36:51.132Z,276
2016-06-17T08:37:50.261Z,280
2016-06-17T08:38:50.295Z,284
2016-06-17T08:39:50.940Z,296
2016-06-17T08:40:51.334Z,308
2016-06-17T08:41:50.305Z,304
2016-06-17T08:42:50.294Z,280
2016-06-17T08:43:50.312Z,244
2016-06-17T08:44:32.781Z,88
2016-06-17T08:45:31.394Z,80
2016-06-17T08:46:31.663Z,68
2016-06-17T08:47:31.418Z,68
2016-06-17T08:48:31.421Z,72
2016-06-17T08:49:32.363Z,72
2016-06-17T08:50:32.444Z,76
2016-06-17T08:51:32.073Z,76
2016-06-17T08:52:31.452Z,80
2016-06-17T08:53:31.721Z,84
2016-06-17T08:54:31.473Z,84
2016-06-17T08:55:31.493Z,84
2016-06-17T08:56:31.731Z,84
2016-06-17T08:57:31.500Z,88
2016-06-17T08:58:31.521Z,88
2016-06-17T08:59:32.148Z,92
2016-06-17T09:00:31.527Z,96
2016-06-17T09:01:31.530Z,104
2016-06-17T09:02:31.580Z,112
2016-06-17T09:03:32.163Z,120
2016-06-17T09:04:31.541Z,128
2016-06-17T09:05:32.638Z,136
2016-06-17T09:06:31.548Z,144
2016-06-17T09:07:31.566Z,148
2016-06-17T09:08:31.570Z,156
2016-06-17T09:16:31.564Z,220
2016-06-17T09:17:33.099Z,224
2016-06-17T09:24:29.707Z,232
2016-06-17T09:25:28.710Z,232
2016-06-17T09:26:28.714Z,232
2016-06-17T09:27:28.718Z,224
2016-06-17T09:28:28.799Z,216
2016-06-17T09:29:28.740Z,212
2016-06-17T09:30:28.743Z,220
2016-06-17T09:31:28.746Z,224
2016-06-17T09:32:28.766Z,232
2016-06-17T09:33:29.395Z,236
2016-06-17T09:34:29.398Z,252
2016-06-17T09:35:28.793Z,256
2016-06-17T09:36:28.780Z,256
2016-06-17T09:37:28.799Z,264
2016-06-17T09:38:28.803Z,272
2016-06-17T09:39:28.838Z,284
2016-06-17T09:40:28.810Z,292
2016-06-17T09:41:29.252Z,304
